sensor_id;sensor_type;location;lat;lon;timestamp;P1;durP1;ratioP1;P2;durP2;ratioP2
69369;SDS011;56530;42.640;23.372;2023-02-01T00:00:21;4.07;;;3.67;;
69369;SDS011;56530;42.640;23.372;2023-02-01T00:02:46;4.83;;;4.10;;
69369;SDS011;56530;42.640;23.372;2023-02-01T00:05:12;3.83;;;3.53;;
69369;SDS011;56530;42.640;23.372;2023-02-01T00:07:38;4.00;;;3.60;;
69369;SDS011;56530;42.640;23.372;2023-02-01T00:10:04;4.13;;;3.70;;
69369;SDS011;56530;42.640;23.372;2023-02-01T00:12:30;4.47;;;3.60;;
69369;SDS011;56530;42.640;23.372;2023-02-01T00:14:56;4.80;;;3.70;;
69369;SDS011;56530;42.640;23.372;2023-02-01T00:17:21;3.90;;;3.60;;
69369;SDS011;56530;42.640;23.372;2023-02-01T00:19:47;5.13;;;3.70;;
69369;SDS011;56530;42.640;23.372;2023-02-01T00:22:12;3.47;;;3.17;;
69369;SDS011;56530;42.640;23.372;2023-02-01T00:24:37;4.57;;;4.17;;
69369;SDS011;56530;42.640;23.372;2023-02-01T00:27:03;5.40;;;3.83;;
69369;SDS011;56530;42.640;23.372;2023-02-01T00:29:28;5.40;;;3.50;;
69369;SDS011;56530;42.640;23.372;2023-02-01T00:31:54;4.93;;;3.83;;
69369;SDS011;56530;42.640;23.372;2023-02-01T00:34:19;4.60;;;4.13;;
69369;SDS011;56530;42.640;23.372;2023-02-01T00:36:45;4.03;;;3.63;;
69369;SDS011;56530;42.640;23.372;2023-02-01T00:39:11;3.70;;;3.40;;
69369;SDS011;56530;42.640;23.372;2023-02-01T00:41:37;4.23;;;3.93;;
69369;SDS011;56530;42.640;23.372;2023-02-01T00:44:02;4.73;;;3.67;;
69369;SDS011;56530;42.640;23.372;2023-02-01T00:46:28;3.70;;;3.40;;
69369;SDS011;56530;42.640;23.372;2023-02-01T00:48:53;6.17;;;4.00;;
69369;SDS011;56530;42.640;23.372;2023-02-01T00:51:23;4.10;;;3.70;;
69369;SDS011;56530;42.640;23.372;2023-02-01T00:53:51;4.53;;;3.50;;
69369;SDS011;56530;42.640;23.372;2023-02-01T00:56:16;3.37;;;3.10;;
69369;SDS011;56530;42.640;23.372;2023-02-01T00:58:42;4.17;;;3.87;;
69369;SDS011;56530;42.640;23.372;2023-02-01T01:01:09;7.77;;;3.70;;
69369;SDS011;56530;42.640;23.372;2023-02-01T01:03:36;3.47;;;3.17;;
69369;SDS011;56530;42.640;23.372;2023-02-01T01:06:08;3.53;;;3.23;;
69369;SDS011;56530;42.640;23.372;2023-02-01T01:08:35;3.70;;;3.40;;
69369;SDS011;56530;42.640;23.372;2023-02-01T01:11:08;5.57;;;3.43;;
69369;SDS011;56530;42.640;23.372;2023-02-01T01:13:37;3.23;;;3.03;;
69369;SDS011;56530;42.640;23.372;2023-02-01T01:16:03;4.10;;;3.80;;
69369;SDS011;56530;42.640;23.372;2023-02-01T01:18:30;3.83;;;3.50;;
69369;SDS011;56530;42.640;23.372;2023-02-01T01:20:56;5.27;;;4.33;;
69369;SDS011;56530;42.640;23.372;2023-02-01T01:23:21;4.07;;;3.33;;
69369;SDS011;56530;42.640;23.372;2023-02-01T01:25:46;3.57;;;3.23;;
69369;SDS011;56530;42.640;23.372;2023-02-01T01:28:12;4.17;;;3.03;;
69369;SDS011;56530;42.640;23.372;2023-02-01T01:30:37;4.33;;;2.90;;
69369;SDS011;56530;42.640;23.372;2023-02-01T01:33:02;4.33;;;3.30;;
69369;SDS011;56530;42.640;23.372;2023-02-01T01:35:29;5.43;;;3.43;;
69369;SDS011;56530;42.640;23.372;2023-02-01T01:37:55;6.07;;;3.07;;
69369;SDS011;56530;42.640;23.372;2023-02-01T01:40:20;3.27;;;2.97;;
69369;SDS011;56530;42.640;23.372;2023-02-01T01:42:45;3.10;;;2.90;;
69369;SDS011;56530;42.640;23.372;2023-02-01T01:48:04;3.83;;;3.43;;
69369;SDS011;56530;42.640;23.372;2023-02-01T01:50:37;4.13;;;2.87;;
69369;SDS011;56530;42.640;23.372;2023-02-01T01:53:06;3.47;;;2.90;;
69369;SDS011;56530;42.640;23.372;2023-02-01T01:55:35;3.40;;;3.10;;
69369;SDS011;56530;42.640;23.372;2023-02-01T01:58:04;3.13;;;2.93;;
69369;SDS011;56530;42.640;23.372;2023-02-01T02:00:31;3.63;;;3.33;;
69369;SDS011;56530;42.640;23.372;2023-02-01T02:03:03;4.17;;;2.70;;
69369;SDS011;56530;42.640;23.372;2023-02-01T02:05:32;4.33;;;3.30;;
69369;SDS011;56530;42.640;23.372;2023-02-01T02:07:58;4.43;;;2.90;;
69369;SDS011;56530;42.640;23.372;2023-02-01T02:10:25;7.50;;;2.83;;
69369;SDS011;56530;42.640;23.372;2023-02-01T02:13:11;3.50;;;2.83;;
69369;SDS011;56530;42.640;23.372;2023-02-01T02:15:38;3.47;;;2.90;;
69369;SDS011;56530;42.640;23.372;2023-02-01T02:18:15;2.50;;;2.30;;
69369;SDS011;56530;42.640;23.372;2023-02-01T02:20:58;3.87;;;3.47;;
69369;SDS011;56530;42.640;23.372;2023-02-01T02:34:48;5.73;;;3.13;;
69369;SDS011;56530;42.640;23.372;2023-02-01T02:37:28;2.70;;;2.50;;
69369;SDS011;56530;42.640;23.372;2023-02-01T02:51:41;4.47;;;2.97;;
69369;SDS011;56530;42.640;23.372;2023-02-01T02:54:28;4.90;;;3.00;;
69369;SDS011;56530;42.640;23.372;2023-02-01T02:57:12;4.30;;;2.83;;
69369;SDS011;56530;42.640;23.372;2023-02-01T02:59:59;2.70;;;2.50;;
69369;SDS011;56530;42.640;23.372;2023-02-01T03:02:45;3.20;;;2.53;;
69369;SDS011;56530;42.640;23.372;2023-02-01T03:05:33;6.27;;;2.90;;
69369;SDS011;56530;42.640;23.372;2023-02-01T03:08:03;4.00;;;2.47;;
69369;SDS011;56530;42.640;23.372;2023-02-01T03:13:08;3.07;;;2.87;;
69369;SDS011;56530;42.640;23.372;2023-02-01T03:16:18;3.87;;;2.50;;
69369;SDS011;56530;42.640;23.372;2023-02-01T03:21:29;2.37;;;2.27;;
69369;SDS011;56530;42.640;23.372;2023-02-01T03:24:07;3.77;;;2.43;;
69369;SDS011;56530;42.640;23.372;2023-02-01T03:26:46;3.77;;;2.30;;
69369;SDS011;56530;42.640;23.372;2023-02-01T03:29:18;2.50;;;2.30;;
69369;SDS011;56530;42.640;23.372;2023-02-01T03:31:49;2.70;;;2.43;;
69369;SDS011;56530;42.640;23.372;2023-02-01T03:34:14;2.53;;;2.37;;
69369;SDS011;56530;42.640;23.372;2023-02-01T03:36:46;2.70;;;2.13;;
69369;SDS011;56530;42.640;23.372;2023-02-01T03:41:57;5.57;;;2.00;;
69369;SDS011;56530;42.640;23.372;2023-02-01T03:44:31;4.53;;;2.27;;
69369;SDS011;56530;42.640;23.372;2023-02-01T03:47:16;2.30;;;2.10;;
69369;SDS011;56530;42.640;23.372;2023-02-01T03:49:59;2.67;;;2.10;;
69369;SDS011;56530;42.640;23.372;2023-02-01T03:55:07;2.77;;;2.40;;
69369;SDS011;56530;42.640;23.372;2023-02-01T03:57:34;2.50;;;2.30;;
69369;SDS011;56530;42.640;23.372;2023-02-01T04:00:06;2.20;;;1.97;;
69369;SDS011;56530;42.640;23.372;2023-02-01T04:02:33;4.43;;;2.10;;
69369;SDS011;56530;42.640;23.372;2023-02-01T04:04:59;2.23;;;1.90;;
69369;SDS011;56530;42.640;23.372;2023-02-01T04:07:24;2.67;;;2.30;;
69369;SDS011;56530;42.640;23.372;2023-02-01T04:09:50;3.73;;;2.50;;
69369;SDS011;56530;42.640;23.372;2023-02-01T04:12:15;5.13;;;2.50;;
69369;SDS011;56530;42.640;23.372;2023-02-01T04:14:40;3.63;;;3.43;;
69369;SDS011;56530;42.640;23.372;2023-02-01T04:17:06;2.23;;;2.10;;
69369;SDS011;56530;42.640;23.372;2023-02-01T04:19:31;3.00;;;2.30;;
69369;SDS011;56530;42.640;23.372;2023-02-01T04:21:56;6.60;;;2.10;;
69369;SDS011;56530;42.640;23.372;2023-02-01T04:24:22;3.80;;;2.70;;
69369;SDS011;56530;42.640;23.372;2023-02-01T04:26:47;11.40;;;2.50;;
69369;SDS011;56530;42.640;23.372;2023-02-01T04:29:12;2.80;;;2.57;;
69369;SDS011;56530;42.640;23.372;2023-02-01T04:31:38;5.83;;;2.90;;
69369;SDS011;56530;42.640;23.372;2023-02-01T04:34:03;3.87;;;3.47;;
69369;SDS011;56530;42.640;23.372;2023-02-01T04:36:29;2.87;;;2.67;;
69369;SDS011;56530;42.640;23.372;2023-02-01T04:38:54;3.70;;;2.40;;
69369;SDS011;56530;42.640;23.372;2023-02-01T04:41:20;3.77;;;2.70;;
69369;SDS011;56530;42.640;23.372;2023-02-01T04:43:46;3.10;;;2.80;;
69369;SDS011;56530;42.640;23.372;2023-02-01T04:46:11;4.60;;;2.63;;
69369;SDS011;56530;42.640;23.372;2023-02-01T04:48:37;6.17;;;3.00;;
69369;SDS011;56530;42.640;23.372;2023-02-01T04:51:02;3.37;;;2.80;;
69369;SDS011;56530;42.640;23.372;2023-02-01T04:53:28;4.80;;;3.00;;
69369;SDS011;56530;42.640;23.372;2023-02-01T04:55:54;6.50;;;2.83;;
69369;SDS011;56530;42.640;23.372;2023-02-01T04:58:20;5.33;;;2.97;;
69369;SDS011;56530;42.640;23.372;2023-02-01T05:00:45;3.50;;;2.93;;
69369;SDS011;56530;42.640;23.372;2023-02-01T05:03:11;4.40;;;3.70;;
69369;SDS011;56530;42.640;23.372;2023-02-01T05:05:36;3.53;;;3.03;;
69369;SDS011;56530;42.640;23.372;2023-02-01T05:08:01;3.73;;;2.77;;
69369;SDS011;56530;42.640;23.372;2023-02-01T05:10:27;5.30;;;3.93;;
69369;SDS011;56530;42.640;23.372;2023-02-01T05:12:52;4.90;;;3.20;;
69369;SDS011;56530;42.640;23.372;2023-02-01T05:15:36;3.77;;;3.47;;
69369;SDS011;56530;42.640;23.372;2023-02-01T05:18:01;6.17;;;4.03;;
69369;SDS011;56530;42.640;23.372;2023-02-01T05:20:27;4.87;;;4.00;;
69369;SDS011;56530;42.640;23.372;2023-02-01T05:22:52;11.93;;;4.40;;
69369;SDS011;56530;42.640;23.372;2023-02-01T05:25:18;7.60;;;3.43;;
69369;SDS011;56530;42.640;23.372;2023-02-01T05:27:44;3.73;;;3.10;;
69369;SDS011;56530;42.640;23.372;2023-02-01T05:30:09;5.80;;;3.50;;
69369;SDS011;56530;42.640;23.372;2023-02-01T05:32:35;5.33;;;3.97;;
69369;SDS011;56530;42.640;23.372;2023-02-01T05:35:00;4.07;;;3.47;;
69369;SDS011;56530;42.640;23.372;2023-02-01T05:37:26;6.27;;;3.60;;
69369;SDS011;56530;42.640;23.372;2023-02-01T05:39:51;6.40;;;3.90;;
69369;SDS011;56530;42.640;23.372;2023-02-01T05:42:17;5.20;;;3.80;;
69369;SDS011;56530;42.640;23.372;2023-02-01T05:44:42;4.30;;;3.40;;
69369;SDS011;56530;42.640;23.372;2023-02-01T05:47:07;10.90;;;4.50;;
69369;SDS011;56530;42.640;23.372;2023-02-01T05:49:33;4.30;;;3.90;;
69369;SDS011;56530;42.640;23.372;2023-02-01T05:51:58;5.37;;;4.83;;
69369;SDS011;56530;42.640;23.372;2023-02-01T05:54:24;5.00;;;4.10;;
69369;SDS011;56530;42.640;23.372;2023-02-01T05:56:49;6.63;;;4.07;;
69369;SDS011;56530;42.640;23.372;2023-02-01T05:59:15;4.87;;;3.53;;
69369;SDS011;56530;42.640;23.372;2023-02-01T06:01:40;5.70;;;3.40;;
69369;SDS011;56530;42.640;23.372;2023-02-01T06:04:06;7.00;;;3.60;;
69369;SDS011;56530;42.640;23.372;2023-02-01T06:06:31;5.40;;;3.30;;
69369;SDS011;56530;42.640;23.372;2023-02-01T06:08:56;4.77;;;3.80;;
69369;SDS011;56530;42.640;23.372;2023-02-01T06:11:22;6.90;;;4.10;;
69369;SDS011;56530;42.640;23.372;2023-02-01T06:13:47;3.87;;;3.07;;
69369;SDS011;56530;42.640;23.372;2023-02-01T06:16:13;4.40;;;3.33;;
69369;SDS011;56530;42.640;23.372;2023-02-01T06:18:40;5.70;;;3.23;;
69369;SDS011;56530;42.640;23.372;2023-02-01T06:21:06;9.07;;;4.73;;
69369;SDS011;56530;42.640;23.372;2023-02-01T06:23:32;10.77;;;3.33;;
69369;SDS011;56530;42.640;23.372;2023-02-01T06:25:58;9.17;;;3.63;;
69369;SDS011;56530;42.640;23.372;2023-02-01T06:28:26;3.23;;;2.90;;
69369;SDS011;56530;42.640;23.372;2023-02-01T06:30:52;6.57;;;3.10;;
69369;SDS011;56530;42.640;23.372;2023-02-01T06:33:18;4.07;;;3.43;;
69369;SDS011;56530;42.640;23.372;2023-02-01T06:35:43;9.13;;;3.13;;
69369;SDS011;56530;42.640;23.372;2023-02-01T06:38:09;5.20;;;2.77;;
69369;SDS011;56530;42.640;23.372;2023-02-01T06:40:36;3.97;;;3.10;;
69369;SDS011;56530;42.640;23.372;2023-02-01T06:43:01;6.13;;;4.03;;
69369;SDS011;56530;42.640;23.372;2023-02-01T06:45:26;8.67;;;2.90;;
69369;SDS011;56530;42.640;23.372;2023-02-01T06:47:52;4.23;;;3.10;;
69369;SDS011;56530;42.640;23.372;2023-02-01T06:50:17;3.20;;;2.43;;
69369;SDS011;56530;42.640;23.372;2023-02-01T06:52:43;3.97;;;2.70;;
69369;SDS011;56530;42.640;23.372;2023-02-01T06:55:08;3.30;;;2.33;;
69369;SDS011;56530;42.640;23.372;2023-02-01T06:57:34;6.10;;;2.40;;
69369;SDS011;56530;42.640;23.372;2023-02-01T07:00:01;4.83;;;2.83;;
69369;SDS011;56530;42.640;23.372;2023-02-01T07:02:28;4.83;;;2.60;;
69369;SDS011;56530;42.640;23.372;2023-02-01T07:04:53;3.87;;;2.90;;
69369;SDS011;56530;42.640;23.372;2023-02-01T07:07:18;3.90;;;2.40;;
69369;SDS011;56530;42.640;23.372;2023-02-01T07:09:44;3.97;;;3.10;;
69369;SDS011;56530;42.640;23.372;2023-02-01T07:12:10;4.30;;;2.47;;
69369;SDS011;56530;42.640;23.372;2023-02-01T07:14:35;3.93;;;2.80;;
69369;SDS011;56530;42.640;23.372;2023-02-01T07:17:01;4.10;;;2.63;;
69369;SDS011;56530;42.640;23.372;2023-02-01T07:19:26;8.33;;;3.20;;
69369;SDS011;56530;42.640;23.372;2023-02-01T07:21:51;3.83;;;2.67;;
69369;SDS011;56530;42.640;23.372;2023-02-01T07:24:17;16.83;;;3.20;;
69369;SDS011;56530;42.640;23.372;2023-02-01T07:26:42;10.50;;;2.77;;
69369;SDS011;56530;42.640;23.372;2023-02-01T07:29:07;3.27;;;2.90;;
69369;SDS011;56530;42.640;23.372;2023-02-01T07:31:33;3.87;;;2.53;;
69369;SDS011;56530;42.640;23.372;2023-02-01T07:33:58;5.27;;;2.47;;
69369;SDS011;56530;42.640;23.372;2023-02-01T07:36:24;3.90;;;2.97;;
69369;SDS011;56530;42.640;23.372;2023-02-01T07:38:49;6.63;;;2.97;;
69369;SDS011;56530;42.640;23.372;2023-02-01T07:41:17;18.60;;;3.60;;
69369;SDS011;56530;42.640;23.372;2023-02-01T07:43:42;2.90;;;2.70;;
69369;SDS011;56530;42.640;23.372;2023-02-01T07:46:09;4.10;;;2.50;;
69369;SDS011;56530;42.640;23.372;2023-02-01T07:48:35;293.07;;;24.83;;
69369;SDS011;56530;42.640;23.372;2023-02-01T07:51:01;1386.57;;;174.90;;
69369;SDS011;56530;42.640;23.372;2023-02-01T07:53:31;1999.90;;;422.83;;
69369;SDS011;56530;42.640;23.372;2023-02-01T07:55:57;1371.30;;;160.57;;
69369;SDS011;56530;42.640;23.372;2023-02-01T07:58:23;528.47;;;46.57;;
69369;SDS011;56530;42.640;23.372;2023-02-01T08:00:49;200.47;;;15.30;;
69369;SDS011;56530;42.640;23.372;2023-02-01T08:03:33;14.93;;;3.37;;
69369;SDS011;56530;42.640;23.372;2023-02-01T08:05:59;13.77;;;2.80;;
69369;SDS011;56530;42.640;23.372;2023-02-01T08:08:24;5.20;;;2.57;;
69369;SDS011;56530;42.640;23.372;2023-02-01T08:10:50;6.40;;;2.90;;
69369;SDS011;56530;42.640;23.372;2023-02-01T08:13:15;4.00;;;2.63;;
69369;SDS011;56530;42.640;23.372;2023-02-01T08:15:41;8.93;;;3.30;;
69369;SDS011;56530;42.640;23.372;2023-02-01T08:18:06;5.20;;;2.63;;
69369;SDS011;56530;42.640;23.372;2023-02-01T08:20:32;2.57;;;2.10;;
69369;SDS011;56530;42.640;23.372;2023-02-01T08:22:59;8.37;;;2.70;;
69369;SDS011;56530;42.640;23.372;2023-02-01T08:25:24;7.27;;;2.60;;
69369;SDS011;56530;42.640;23.372;2023-02-01T08:27:50;7.93;;;2.87;;
69369;SDS011;56530;42.640;23.372;2023-02-01T08:30:15;2.17;;;1.87;;
69369;SDS011;56530;42.640;23.372;2023-02-01T08:32:41;4.03;;;2.83;;
69369;SDS011;56530;42.640;23.372;2023-02-01T08:35:07;8.73;;;3.40;;
69369;SDS011;56530;42.640;23.372;2023-02-01T08:37:33;5.00;;;2.30;;
69369;SDS011;56530;42.640;23.372;2023-02-01T08:39:58;4.23;;;2.43;;
69369;SDS011;56530;42.640;23.372;2023-02-01T08:42:24;2.47;;;2.20;;
69369;SDS011;56530;42.640;23.372;2023-02-01T08:45:08;5.55;;;2.60;;
69369;SDS011;56530;42.640;23.372;2023-02-01T08:47:34;3.90;;;2.40;;
69369;SDS011;56530;42.640;23.372;2023-02-01T08:50:00;5.47;;;2.53;;
69369;SDS011;56530;42.640;23.372;2023-02-01T08:52:25;4.57;;;2.70;;
69369;SDS011;56530;42.640;23.372;2023-02-01T08:54:50;4.47;;;2.47;;
69369;SDS011;56530;42.640;23.372;2023-02-01T08:57:16;12.77;;;2.77;;
69369;SDS011;56530;42.640;23.372;2023-02-01T08:59:42;3.40;;;2.60;;
69369;SDS011;56530;42.640;23.372;2023-02-01T09:02:11;55.90;;;8.90;;
69369;SDS011;56530;42.640;23.372;2023-02-01T09:04:37;22.17;;;4.27;;
69369;SDS011;56530;42.640;23.372;2023-02-01T09:07:03;13.43;;;3.40;;
69369;SDS011;56530;42.640;23.372;2023-02-01T09:09:28;2.70;;;2.33;;
69369;SDS011;56530;42.640;23.372;2023-02-01T09:11:53;4.17;;;2.20;;
69369;SDS011;56530;42.640;23.372;2023-02-01T09:14:19;3.67;;;2.00;;
69369;SDS011;56530;42.640;23.372;2023-02-01T09:16:44;4.37;;;3.17;;
69369;SDS011;56530;42.640;23.372;2023-02-01T09:19:10;4.07;;;2.03;;
69369;SDS011;56530;42.640;23.372;2023-02-01T09:21:35;7.37;;;2.10;;
69369;SDS011;56530;42.640;23.372;2023-02-01T09:24:01;8.10;;;2.30;;
69369;SDS011;56530;42.640;23.372;2023-02-01T09:26:26;2.37;;;2.17;;
69369;SDS011;56530;42.640;23.372;2023-02-01T09:28:52;2.73;;;2.10;;
69369;SDS011;56530;42.640;23.372;2023-02-01T09:31:18;10.80;;;4.23;;
69369;SDS011;56530;42.640;23.372;2023-02-01T09:33:44;3.13;;;2.67;;
69369;SDS011;56530;42.640;23.372;2023-02-01T09:36:09;6.20;;;3.07;;
69369;SDS011;56530;42.640;23.372;2023-02-01T09:38:35;6.20;;;2.33;;
69369;SDS011;56530;42.640;23.372;2023-02-01T09:41:00;2.60;;;2.23;;
69369;SDS011;56530;42.640;23.372;2023-02-01T09:43:32;3.87;;;2.50;;
69369;SDS011;56530;42.640;23.372;2023-02-01T09:46:30;4.67;;;2.20;;
69369;SDS011;56530;42.640;23.372;2023-02-01T09:48:59;5.70;;;2.43;;
69369;SDS011;56530;42.640;23.372;2023-02-01T09:51:32;3.67;;;2.13;;
69369;SDS011;56530;42.640;23.372;2023-02-01T09:54:03;2.07;;;1.70;;
69369;SDS011;56530;42.640;23.372;2023-02-01T09:56:45;5.43;;;2.77;;
69369;SDS011;56530;42.640;23.372;2023-02-01T09:59:22;5.27;;;2.07;;
69369;SDS011;56530;42.640;23.372;2023-02-01T10:02:27;3.17;;;2.20;;
69369;SDS011;56530;42.640;23.372;2023-02-01T10:04:55;4.57;;;2.20;;
69369;SDS011;56530;42.640;23.372;2023-02-01T10:09:58;5.77;;;2.33;;
69369;SDS011;56530;42.640;23.372;2023-02-01T10:12:45;2.10;;;1.90;;
69369;SDS011;56530;42.640;23.372;2023-02-01T10:15:24;4.13;;;2.03;;
69369;SDS011;56530;42.640;23.372;2023-02-01T10:23:25;4.03;;;2.30;;
69369;SDS011;56530;42.640;23.372;2023-02-01T10:28:34;6.23;;;2.43;;
69369;SDS011;56530;42.640;23.372;2023-02-01T10:31:01;2.60;;;2.33;;
69369;SDS011;56530;42.640;23.372;2023-02-01T10:36:10;6.18;;;2.40;;
69369;SDS011;56530;42.640;23.372;2023-02-01T10:39:00;8.27;;;2.45;;
69369;SDS011;56530;42.640;23.372;2023-02-01T10:41:34;3.30;;;2.05;;
69369;SDS011;56530;42.640;23.372;2023-02-01T10:44:02;6.80;;;2.40;;
69369;SDS011;56530;42.640;23.372;2023-02-01T10:46:30;15.90;;;3.53;;
69369;SDS011;56530;42.640;23.372;2023-02-01T10:48:56;4.50;;;2.20;;
69369;SDS011;56530;42.640;23.372;2023-02-01T10:51:23;3.15;;;2.00;;
69369;SDS011;56530;42.640;23.372;2023-02-01T10:53:54;4.78;;;2.72;;
69369;SDS011;56530;42.640;23.372;2023-02-01T10:56:23;24.98;;;4.55;;
69369;SDS011;56530;42.640;23.372;2023-02-01T10:58:50;2.65;;;1.92;;
69369;SDS011;56530;42.640;23.372;2023-02-01T11:08:51;4.20;;;2.10;;
69369;SDS011;56530;42.640;23.372;2023-02-01T11:11:17;5.10;;;2.40;;
69369;SDS011;56530;42.640;23.372;2023-02-01T11:13:43;8.80;;;2.90;;
69369;SDS011;56530;42.640;23.372;2023-02-01T11:16:12;6.25;;;2.17;;
69369;SDS011;56530;42.640;23.372;2023-02-01T11:18:39;3.88;;;2.03;;
69369;SDS011;56530;42.640;23.372;2023-02-01T11:21:05;3.20;;;2.20;;
69369;SDS011;56530;42.640;23.372;2023-02-01T11:23:32;4.45;;;2.75;;
69369;SDS011;56530;42.640;23.372;2023-02-01T11:25:59;8.45;;;2.80;;
69369;SDS011;56530;42.640;23.372;2023-02-01T11:28:27;4.50;;;2.58;;
69369;SDS011;56530;42.640;23.372;2023-02-01T11:30:56;4.87;;;2.37;;
69369;SDS011;56530;42.640;23.372;2023-02-01T11:33:24;2.10;;;1.73;;
69369;SDS011;56530;42.640;23.372;2023-02-01T11:35:54;2.30;;;2.10;;
69369;SDS011;56530;42.640;23.372;2023-02-01T11:38:28;5.85;;;2.40;;
69369;SDS011;56530;42.640;23.372;2023-02-01T11:41:10;2.50;;;2.10;;
69369;SDS011;56530;42.640;23.372;2023-02-01T11:43:56;4.55;;;2.13;;
69369;SDS011;56530;42.640;23.372;2023-02-01T11:46:33;3.15;;;2.05;;
69369;SDS011;56530;42.640;23.372;2023-02-01T11:54:44;2.33;;;2.13;;
69369;SDS011;56530;42.640;23.372;2023-02-01T12:05:55;3.27;;;1.90;;
69369;SDS011;56530;42.640;23.372;2023-02-01T12:14:02;4.78;;;2.60;;
69369;SDS011;56530;42.640;23.372;2023-02-01T12:16:43;3.60;;;2.10;;
69369;SDS011;56530;42.640;23.372;2023-02-01T12:19:26;2.83;;;2.63;;
69369;SDS011;56530;42.640;23.372;2023-02-01T12:22:18;1.80;;;1.70;;
69369;SDS011;56530;42.640;23.372;2023-02-01T12:29:56;3.63;;;1.80;;
69369;SDS011;56530;42.640;23.372;2023-02-01T12:45:53;4.85;;;2.15;;
69369;SDS011;56530;42.640;23.372;2023-02-01T12:48:30;7.88;;;2.70;;
69369;SDS011;56530;42.640;23.372;2023-02-01T12:51:07;2.42;;;1.80;;
69369;SDS011;56530;42.640;23.372;2023-02-01T12:53:51;2.20;;;2.00;;
69369;SDS011;56530;42.640;23.372;2023-02-01T12:56:27;2.53;;;1.67;;
69369;SDS011;56530;42.640;23.372;2023-02-01T12:58:56;3.10;;;2.15;;
69369;SDS011;56530;42.640;23.372;2023-02-01T13:03:59;1.83;;;1.65;;
69369;SDS011;56530;42.640;23.372;2023-02-01T13:07:19;2.27;;;2.07;;
69369;SDS011;56530;42.640;23.372;2023-02-01T13:09:29;3.75;;;2.20;;
69369;SDS011;56530;42.640;23.372;2023-02-01T13:12:02;1.85;;;1.60;;
69369;SDS011;56530;42.640;23.372;2023-02-01T13:22:12;4.30;;;2.03;;
69369;SDS011;56530;42.640;23.372;2023-02-01T13:27:14;2.13;;;1.67;;
69369;SDS011;56530;42.640;23.372;2023-02-01T13:42:51;9.13;;;2.30;;
69369;SDS011;56530;42.640;23.372;2023-02-01T13:47:47;4.20;;;2.25;;
69369;SDS011;56530;42.640;23.372;2023-02-01T13:50:36;2.47;;;1.63;;
69369;SDS011;56530;42.640;23.372;2023-02-01T13:55:36;7.47;;;2.00;;
69369;SDS011;56530;42.640;23.372;2023-02-01T14:03:54;9.45;;;2.33;;
69369;SDS011;56530;42.640;23.372;2023-02-01T14:34:31;6.15;;;2.10;;
69369;SDS011;56530;42.640;23.372;2023-02-01T14:37:00;4.70;;;1.90;;
69369;SDS011;56530;42.640;23.372;2023-02-01T14:49:49;3.57;;;2.50;;
69369;SDS011;56530;42.640;23.372;2023-02-01T14:52:20;3.65;;;2.38;;
69369;SDS011;56530;42.640;23.372;2023-02-01T14:54:53;2.63;;;2.17;;
69369;SDS011;56530;42.640;23.372;2023-02-01T14:57:20;7.43;;;2.70;;
69369;SDS011;56530;42.640;23.372;2023-02-01T15:02:25;3.55;;;2.55;;
69369;SDS011;56530;42.640;23.372;2023-02-01T15:07:20;2.50;;;1.90;;
69369;SDS011;56530;42.640;23.372;2023-02-01T15:14:46;3.00;;;2.40;;
69369;SDS011;56530;42.640;23.372;2023-02-01T15:19:57;4.40;;;2.27;;
69369;SDS011;56530;42.640;23.372;2023-02-01T15:22:24;3.87;;;2.20;;
69369;SDS011;56530;42.640;23.372;2023-02-01T15:27:25;6.83;;;2.93;;
69369;SDS011;56530;42.640;23.372;2023-02-01T15:29:52;5.70;;;2.30;;
69369;SDS011;56530;42.640;23.372;2023-02-01T15:37:26;2.93;;;2.57;;
69369;SDS011;56530;42.640;23.372;2023-02-01T15:42:46;3.83;;;1.83;;
69369;SDS011;56530;42.640;23.372;2023-02-01T15:45:17;8.60;;;2.43;;
69369;SDS011;56530;42.640;23.372;2023-02-01T15:47:46;8.43;;;2.60;;
69369;SDS011;56530;42.640;23.372;2023-02-01T15:50:14;4.90;;;2.70;;
69369;SDS011;56530;42.640;23.372;2023-02-01T15:52:41;5.10;;;2.40;;
69369;SDS011;56530;42.640;23.372;2023-02-01T15:57:52;4.27;;;2.37;;
69369;SDS011;56530;42.640;23.372;2023-02-01T16:02:54;2.60;;;2.40;;
69369;SDS011;56530;42.640;23.372;2023-02-01T16:05:31;3.03;;;2.67;;
69369;SDS011;56530;42.640;23.372;2023-02-01T16:10:53;4.15;;;3.20;;
69369;SDS011;56530;42.640;23.372;2023-02-01T16:13:24;2.45;;;2.25;;
69369;SDS011;56530;42.640;23.372;2023-02-01T16:15:49;3.70;;;2.70;;
69369;SDS011;56530;42.640;23.372;2023-02-01T16:18:15;3.27;;;2.27;;
69369;SDS011;56530;42.640;23.372;2023-02-01T16:20:41;8.30;;;3.07;;
69369;SDS011;56530;42.640;23.372;2023-02-01T16:23:07;4.10;;;3.65;;
69369;SDS011;56530;42.640;23.372;2023-02-01T16:25:34;8.03;;;2.90;;
69369;SDS011;56530;42.640;23.372;2023-02-01T16:28:00;4.10;;;2.70;;
69369;SDS011;56530;42.640;23.372;2023-02-01T16:30:25;3.27;;;2.53;;
69369;SDS011;56530;42.640;23.372;2023-02-01T16:32:58;3.47;;;3.17;;
69369;SDS011;56530;42.640;23.372;2023-02-01T16:35:26;2.77;;;2.30;;
69369;SDS011;56530;42.640;23.372;2023-02-01T16:38:02;3.57;;;2.30;;
69369;SDS011;56530;42.640;23.372;2023-02-01T16:40:33;2.25;;;2.05;;
69369;SDS011;56530;42.640;23.372;2023-02-01T16:42:59;5.47;;;2.30;;
69369;SDS011;56530;42.640;23.372;2023-02-01T16:45:25;3.13;;;2.28;;
69369;SDS011;56530;42.640;23.372;2023-02-01T16:47:51;3.35;;;2.40;;
69369;SDS011;56530;42.640;23.372;2023-02-01T16:50:20;4.20;;;2.33;;
69369;SDS011;56530;42.640;23.372;2023-02-01T16:52:47;3.03;;;2.73;;
69369;SDS011;56530;42.640;23.372;2023-02-01T17:04:58;9.50;;;3.10;;
69369;SDS011;56530;42.640;23.372;2023-02-01T17:07:24;3.10;;;2.80;;
69369;SDS011;56530;42.640;23.372;2023-02-01T17:09:49;3.50;;;2.65;;
69369;SDS011;56530;42.640;23.372;2023-02-01T17:12:22;6.57;;;2.40;;
69369;SDS011;56530;42.640;23.372;2023-02-01T17:14:48;3.85;;;3.08;;
69369;SDS011;56530;42.640;23.372;2023-02-01T17:17:15;2.73;;;2.40;;
69369;SDS011;56530;42.640;23.372;2023-02-01T17:19:47;3.13;;;2.57;;
69369;SDS011;56530;42.640;23.372;2023-02-01T17:22:17;8.93;;;2.77;;
69369;SDS011;56530;42.640;23.372;2023-02-01T17:24:42;7.78;;;2.80;;
69369;SDS011;56530;42.640;23.372;2023-02-01T17:27:08;5.60;;;2.20;;
69369;SDS011;56530;42.640;23.372;2023-02-01T17:29:33;4.63;;;2.60;;
69369;SDS011;56530;42.640;23.372;2023-02-01T17:31:59;5.03;;;3.23;;
69369;SDS011;56530;42.640;23.372;2023-02-01T17:34:25;5.15;;;3.55;;
69369;SDS011;56530;42.640;23.372;2023-02-01T17:36:51;5.88;;;3.67;;
69369;SDS011;56530;42.640;23.372;2023-02-01T17:39:16;3.97;;;3.00;;
69369;SDS011;56530;42.640;23.372;2023-02-01T17:42:01;6.18;;;3.95;;
69369;SDS011;56530;42.640;23.372;2023-02-01T17:44:27;5.90;;;4.47;;
69369;SDS011;56530;42.640;23.372;2023-02-01T17:46:52;5.27;;;3.53;;
69369;SDS011;56530;42.640;23.372;2023-02-01T17:49:18;3.57;;;3.03;;
69369;SDS011;56530;42.640;23.372;2023-02-01T17:51:43;4.00;;;3.27;;
69369;SDS011;56530;42.640;23.372;2023-02-01T17:54:12;3.23;;;2.70;;
69369;SDS011;56530;42.640;23.372;2023-02-01T17:56:37;7.15;;;4.20;;
69369;SDS011;56530;42.640;23.372;2023-02-01T17:59:03;4.93;;;4.13;;
69369;SDS011;56530;42.640;23.372;2023-02-01T18:01:28;5.80;;;3.47;;
69369;SDS011;56530;42.640;23.372;2023-02-01T18:03:54;3.53;;;2.90;;
69369;SDS011;56530;42.640;23.372;2023-02-01T18:06:20;5.03;;;2.80;;
69369;SDS011;56530;42.640;23.372;2023-02-01T18:08:47;3.38;;;2.60;;
69369;SDS011;56530;42.640;23.372;2023-02-01T18:11:20;4.10;;;3.55;;
69369;SDS011;56530;42.640;23.372;2023-02-01T18:13:49;3.25;;;2.90;;